Time;durP1;ratioP1;P1;durP2;ratioP2;P2;SDS_P1;SDS_P2;PMS_P1;PMS_P2;Temp;Humidity;BMP_temperature;BMP_pressure;BME280_temperature;BME280_humidity;BME280_pressure;Samples;Min_cycle;Max_cycle;Signal;HPM_P1;HPM_P2
2021/10/03 00:01:32;;;;;;;5.32;0.95;;;;;;;14.66;71.72;98122.84;4947227;28;20027;-90
2021/10/03 00:03:58;;;;;;;2.58;0.70;;;;;;;14.64;71.32;98135.44;4947838;28;20085;-91
2021/10/03 00:06:24;;;;;;;2.58;0.70;;;;;;;14.61;71.88;98137.63;4951395;28;20457;-89
2021/10/03 00:08:52;;;;;;;1.73;0.40;;;;;;;14.56;71.77;98135.53;4946787;28;20065;-90
2021/10/03 00:11:19;;;;;;;3.58;0.63;;;;;;;14.58;71.75;98146.72;4945965;28;20062;-89
2021/10/03 00:13:44;;;;;;;4.57;0.60;;;;;;;14.54;71.92;98147.28;4946657;28;20035;-90
2021/10/03 00:16:10;;;;;;;3.53;0.77;;;;;;;14.48;72.44;98149.63;4950789;28;20019;-89
2021/10/03 00:18:36;;;;;;;5.28;0.80;;;;;;;14.47;72.26;98155.09;4946410;28;20027;-89
2021/10/03 00:21:02;;;;;;;2.55;0.63;;;;;;;14.44;72.39;98155.47;4946454;28;20114;-90
2021/10/03 00:23:30;;;;;;;7.63;1.05;;;;;;;14.50;72.99;98153.94;4946897;28;20028;-90
2021/10/03 00:25:55;;;;;;;4.88;0.70;;;;;;;14.45;72.54;98155.31;4946677;28;20059;-90
2021/10/03 00:28:21;;;;;;;5.03;0.68;;;;;;;14.44;72.90;98163.41;4946722;28;20528;-89
2021/10/03 00:30:46;;;;;;;4.13;0.65;;;;;;;14.39;72.19;98150.72;4948407;28;20036;-89
2021/10/03 00:33:12;;;;;;;6.15;0.73;;;;;;;14.48;72.45;98154.09;4948390;28;20129;-90
2021/10/03 00:35:38;;;;;;;2.47;0.43;;;;;;;14.44;72.32;98144.91;4946545;28;20039;-90
2021/10/03 00:38:07;;;;;;;4.50;0.63;;;;;;;14.43;71.88;98141.44;4945509;28;20115;-90
2021/10/03 00:40:33;;;;;;;3.60;0.50;;;;;;;14.48;72.16;98138.25;4946035;28;20059;-90
2021/10/03 00:43:02;;;;;;;1.05;0.40;;;;;;;14.45;72.64;98130.69;4946188;28;20062;-90
2021/10/03 00:45:30;;;;;;;3.90;0.50;;;;;;;14.39;72.60;98124.31;4946717;28;20046;-90
2021/10/03 00:47:57;;;;;;;2.20;0.60;;;;;;;14.40;72.63;98119.88;4950846;28;20409;-89
2021/10/03 00:50:22;;;;;;;2.67;0.63;;;;;;;14.35;72.71;98122.25;4949094;28;20039;-90
2021/10/03 00:52:49;;;;;;;2.40;0.50;;;;;;;14.29;72.48;98124.63;4944281;28;20027;-90
2021/10/03 00:55:17;;;;;;;1.08;0.52;;;;;;;14.31;72.78;98137.63;4946024;28;20076;-90
2021/10/03 00:57:46;;;;;;;6.63;0.52;;;;;;;14.25;72.29;98151.56;4945729;28;20169;-90
2021/10/03 01:00:13;;;;;;;4.32;0.55;;;;;;;14.18;72.22;98158.56;4946169;28;20039;-90
2021/10/03 01:02:39;;;;;;;2.00;0.43;;;;;;;14.05;72.75;98161.84;4947051;28;20035;-89
2021/10/03 01:05:08;;;;;;;4.75;0.77;;;;;;;14.17;73.12;98167.50;4945899;28;20035;-90
2021/10/03 01:07:35;;;;;;;2.53;0.55;;;;;;;14.15;72.96;98180.88;4945585;28;20386;-90
2021/10/03 01:10:00;;;;;;;4.30;0.60;;;;;;;14.16;73.06;98179.88;4945844;28;20023;-90
2021/10/03 01:12:26;;;;;;;4.53;0.80;;;;;;;14.10;73.41;98175.34;4946077;28;20493;-89
2021/10/03 01:14:51;;;;;;;3.03;0.40;;;;;;;14.13;73.45;98169.69;4945996;28;20031;-90
2021/10/03 01:17:17;;;;;;;4.80;0.85;;;;;;;13.93;72.53;98172.03;4950911;28;20042;-90
2021/10/03 01:19:42;;;;;;;1.52;0.50;;;;;;;14.09;73.71;98176.31;4945625;28;20050;-89
2021/10/03 01:22:08;;;;;;;5.55;0.90;;;;;;;14.01;73.23;98190.41;4946361;28;20126;-89
2021/10/03 01:24:33;;;;;;;2.63;0.60;;;;;;;13.95;73.24;98185.06;4945433;28;20715;-90
2021/10/03 01:27:03;;;;;;;1.83;0.50;;;;;;;14.20;72.83;98191.72;4945160;28;20062;-89
2021/10/03 01:29:30;;;;;;;6.45;0.98;;;;;;;14.27;73.25;98194.44;4945404;28;20027;-89
2021/10/03 01:31:56;;;;;;;3.58;0.90;;;;;;;14.41;72.61;98185.69;4944853;28;20817;-89
2021/10/03 01:34:21;;;;;;;4.85;0.60;;;;;;;14.38;72.46;98179.97;4946063;28;20677;-89
2021/10/03 01:36:47;;;;;;;1.83;0.40;;;;;;;14.27;72.17;98176.78;4945443;28;20481;-90
2021/10/03 01:39:12;;;;;;;3.22;0.52;;;;;;;14.31;72.34;98165.84;4945812;28;20027;-90
2021/10/03 01:41:38;;;;;;;3.40;0.55;;;;;;;14.26;72.28;98161.13;4944533;28;20023;-89
2021/10/03 01:44:04;;;;;;;2.80;1.00;;;;;;;14.25;72.79;98148.94;4946268;29;20101;-90
2021/10/03 01:46:29;;;;;;;4.43;0.85;;;;;;;14.22;72.87;98152.75;4945651;28;20113;-90
2021/10/03 01:48:55;;;;;;;6.82;0.60;;;;;;;14.24;72.83;98171.88;4946272;28;20106;-89
2021/10/03 01:51:21;;;;;;;2.45;0.60;;;;;;;14.16;72.99;98187.81;4949747;28;20035;-89
2021/10/03 01:53:52;;;;;;;3.15;0.65;;;;;;;13.98;73.54;98193.44;4945856;28;20034;-89
2021/10/03 01:56:20;;;;;;;5.35;0.88;;;;;;;14.11;72.67;98190.16;4945183;28;20039;-89
2021/10/03 01:58:49;;;;;;;3.67;0.93;;;;;;;14.13;72.66;98198.69;4945465;28;20039;-90
2021/10/03 02:01:28;;;;;;;8.05;0.70;;;;;;;14.06;72.76;98192.53;4944104;28;20041;-90
2021/10/03 02:03:53;;;;;;;7.18;0.80;;;;;;;14.11;73.00;98191.97;4944333;28;20039;-90
2021/10/03 02:06:19;;;;;;;4.57;0.40;;;;;;;14.07;72.41;98186.25;4944671;28;20035;-89
2021/10/03 02:08:49;;;;;;;4.40;0.43;;;;;;;14.19;72.84;98187.41;4945355;28;20447;-89
2021/10/03 02:11:14;;;;;;;3.85;0.70;;;;;;;14.11;72.75;98174.31;4946207;28;20548;-89
2021/10/03 02:13:39;;;;;;;3.42;0.70;;;;;;;14.06;72.81;98171.41;4945471;28;20039;-89
2021/10/03 02:16:05;;;;;;;3.70;0.40;;;;;;;14.02;72.06;98164.84;4945957;28;20023;-90
2021/10/03 02:18:36;;;;;;;1.45;0.45;;;;;;;14.04;72.49;98152.28;4946868;28;20475;-90
2021/10/03 02:21:03;;;;;;;1.60;0.43;;;;;;;13.94;71.78;98143.81;4947659;28;20394;-89
2021/10/03 02:23:29;;;;;;;1.52;0.52;;;;;;;13.90;72.15;98151.28;4950565;28;20023;-89
2021/10/03 02:25:55;;;;;;;1.50;0.57;;;;;;;13.96;72.62;98157.66;4948957;28;20042;-89
2021/10/03 02:28:23;;;;;;;1.33;0.30;;;;;;;13.96;72.46;98155.00;4949385;28;20059;-90
2021/10/03 02:30:52;;;;;;;2.05;0.50;;;;;;;13.91;72.63;98167.94;4948985;28;20027;-89
2021/10/03 02:33:17;;;;;;;4.88;0.60;;;;;;;13.87;72.20;98160.38;4948369;28;20055;-90
2021/10/03 02:35:43;;;;;;;1.55;0.40;;;;;;;13.87;72.62;98156.94;4948671;28;20063;-90
2021/10/03 02:38:16;;;;;;;1.23;0.57;;;;;;;13.93;72.76;98142.22;4949141;28;20027;-90
2021/10/03 02:40:44;;;;;;;3.80;0.60;;;;;;;13.87;72.52;98151.66;4948015;28;20054;-90
2021/10/03 02:43:10;;;;;;;4.07;0.80;;;;;;;13.73;72.24;98161.19;4949982;28;20482;-90
2021/10/03 02:45:41;;;;;;;1.08;0.40;;;;;;;13.77;72.59;98156.38;4951100;28;20110;-90
2021/10/03 02:48:07;;;;;;;3.28;0.68;;;;;;;13.80;73.00;98146.28;4948253;28;20050;-90
2021/10/03 02:50:33;;;;;;;0.57;0.30;;;;;;;13.78;73.31;98148.25;4950518;28;20038;-89
2021/10/03 02:52:59;;;;;;;3.30;0.55;;;;;;;13.74;73.12;98156.72;4948093;28;20031;-90
2021/10/03 02:55:24;;;;;;;3.92;0.77;;;;;;;13.77;73.22;98165.09;4949117;28;20035;-90
2021/10/03 02:57:50;;;;;;;4.47;0.52;;;;;;;13.65;72.04;98166.53;4949379;28;20478;-90
2021/10/03 03:00:16;;;;;;;1.02;0.35;;;;;;;13.73;72.70;98163.81;4951449;28;20046;-90
2021/10/03 03:02:41;;;;;;;2.25;0.60;;;;;;;13.72;72.67;98164.81;4947647;28;20086;-89
2021/10/03 03:05:08;;;;;;;2.08;0.50;;;;;;;13.76;73.06;98175.81;4948580;28;20039;-90
2021/10/03 03:07:35;;;;;;;2.13;0.43;;;;;;;13.76;72.48;98179.28;4948527;28;20355;-91
2021/10/03 03:10:01;;;;;;;4.97;0.60;;;;;;;13.74;72.40;98178.63;4946773;28;20034;-90
2021/10/03 03:12:27;;;;;;;2.22;0.60;;;;;;;13.78;72.61;98179.91;4948263;28;20068;-89
2021/10/03 03:14:52;;;;;;;5.45;0.73;;;;;;;13.75;72.45;98179.47;4948826;28;20240;-90
2021/10/03 03:17:19;;;;;;;1.30;0.40;;;;;;;13.81;72.73;98174.28;4949216;29;20034;-90
2021/10/03 03:19:44;;;;;;;6.38;0.60;;;;;;;13.82;72.79;98170.66;4947235;28;20085;-90
2021/10/03 03:22:11;;;;;;;2.97;0.68;;;;;;;13.66;72.07;98168.16;4966600;28;20027;-89
2021/10/03 03:24:37;;;;;;;2.25;0.30;;;;;;;13.68;72.42;98166.16;4958658;28;20332;-89
2021/10/03 03:27:03;;;;;;;2.97;1.00;;;;;;;13.80;72.12;98156.84;4975522;28;20320;-90
2021/10/03 03:29:29;;;;;;;3.72;0.65;;;;;;;13.81;71.94;98147.91;4954137;28;20066;-90
2021/10/03 03:31:55;;;;;;;4.57;0.70;;;;;;;13.77;71.65;98154.56;4948086;28;20110;-90
2021/10/03 03:34:22;;;;;;;3.08;0.40;;;;;;;13.75;71.99;98153.91;4948310;28;20043;-90
2021/10/03 03:36:47;;;;;;;2.53;0.65;;;;;;;13.79;71.99;98171.00;4949028;28;20366;-90
2021/10/03 03:39:13;;;;;;;1.58;0.40;;;;;;;13.74;71.93;98160.16;4947132;28;20082;-90
2021/10/03 03:41:38;;;;;;;2.20;0.30;;;;;;;13.76;72.29;98158.19;4948145;28;20058;-91
2021/10/03 03:44:03;;;;;;;2.25;0.57;;;;;;;13.73;71.61;98145.38;4949541;28;20086;-90
2021/10/03 03:46:29;;;;;;;1.63;0.55;;;;;;;13.79;72.09;98154.38;4947811;28;20042;-90
2021/10/03 03:48:54;;;;;;;2.95;0.70;;;;;;;13.79;71.88;98173.66;4948293;28;20054;-90
2021/10/03 03:51:20;;;;;;;4.90;0.73;;;;;;;13.72;72.33;98188.53;4949947;28;20130;-90
2021/10/03 03:53:45;;;;;;;2.40;0.50;;;;;;;13.74;72.35;98183.09;4947683;28;20035;-90
2021/10/03 03:56:10;;;;;;;2.95;0.50;;;;;;;13.84;72.36;98189.78;4947548;28;20113;-90
2021/10/03 03:58:36;;;;;;;4.50;0.55;;;;;;;13.65;70.65;98185.00;4947039;28;20398;-88
2021/10/03 04:01:02;;;;;;;5.40;0.63;;;;;;;13.62;71.22;98195.88;4947629;28;21342;-89
2021/10/03 04:03:27;;;;;;;1.92;0.40;;;;;;;13.79;71.09;98189.47;4947774;28;20390;-90
2021/10/03 04:05:53;;;;;;;3.92;0.55;;;;;;;13.84;71.04;98215.31;4946290;28;20430;-90
2021/10/03 04:08:20;;;;;;;2.75;0.38;;;;;;;13.82;71.58;98207.59;4948209;28;20074;-90
2021/10/03 04:10:45;;;;;;;4.97;0.70;;;;;;;13.82;70.99;98197.03;4953971;28;20035;-90
2021/10/03 04:13:11;;;;;;;4.82;0.77;;;;;;;13.69;70.80;98210.81;4951145;28;20034;-89
2021/10/03 04:15:36;;;;;;;2.78;0.63;;;;;;;13.68;71.00;98200.44;4947101;28;20121;-90
2021/10/03 04:18:01;;;;;;;5.15;0.93;;;;;;;13.71;71.39;98191.38;4945814;28;20031;-89
2021/10/03 04:20:27;;;;;;;3.22;0.52;;;;;;;13.71;71.51;98188.75;4947170;28;20035;-89
2021/10/03 04:22:52;;;;;;;3.05;0.60;;;;;;;13.63;71.40;98206.28;4946842;28;20036;-89
2021/10/03 04:25:17;;;;;;;4.25;0.60;;;;;;;13.53;71.08;98218.88;4945257;28;20924;-89
2021/10/03 04:27:44;;;;;;;2.30;0.52;;;;;;;13.58;71.54;98210.44;4946821;28;20054;-89
2021/10/03 04:30:10;;;;;;;2.35;0.70;;;;;;;13.54;72.55;98214.41;4946792;29;20024;-90
2021/10/03 04:32:35;;;;;;;3.28;0.68;;;;;;;13.56;72.03;98228.25;4946797;28;20090;-89
2021/10/03 04:35:00;;;;;;;4.22;0.77;;;;;;;13.51;71.98;98235.84;4945899;28;20019;-89
2021/10/03 04:37:27;;;;;;;4.68;0.90;;;;;;;13.62;72.03;98241.53;4947752;28;20089;-90
2021/10/03 04:39:52;;;;;;;3.75;0.50;;;;;;;13.60;71.95;98232.16;4946635;28;20033;-89
2021/10/03 04:42:19;;;;;;;4.38;1.00;;;;;;;13.56;72.06;98228.25;4946210;28;20019;-90
2021/10/03 04:44:45;;;;;;;3.30;0.60;;;;;;;13.56;71.69;98217.69;4947106;28;20031;-90
2021/10/03 04:47:11;;;;;;;2.45;0.50;;;;;;;13.52;71.51;98221.69;4946572;28;20389;-89
2021/10/03 04:49:36;;;;;;;2.10;0.50;;;;;;;13.44;71.77;98209.38;4947990;28;20047;-89
2021/10/03 04:52:02;;;;;;;2.53;0.70;;;;;;;13.49;71.93;98218.41;4945032;28;20039;-90
2021/10/03 04:54:27;;;;;;;4.28;0.60;;;;;;;13.46;71.36;98228.47;4946289;28;20031;-89
2021/10/03 04:56:53;;;;;;;6.68;1.10;;;;;;;13.25;70.26;98232.56;4945677;28;20023;-89
2021/10/03 04:59:18;;;;;;;5.38;0.60;;;;;;;13.24;71.13;98230.91;4946495;28;20623;-89
2021/10/03 05:01:44;;;;;;;1.55;0.60;;;;;;;13.21;71.47;98223.34;4946252;28;20474;-89
2021/10/03 05:04:10;;;;;;;1.65;0.63;;;;;;;13.19;71.48;98206.91;4944422;28;20090;-89
2021/10/03 05:06:35;;;;;;;4.00;0.90;;;;;;;13.10;71.82;98182.41;4945574;28;20031;-89
2021/10/03 05:09:01;;;;;;;1.73;0.50;;;;;;;13.10;71.50;98202.66;4945463;28;20041;-89
2021/10/03 05:11:26;;;;;;;2.65;0.60;;;;;;;12.80;71.62;98238.56;4945631;28;20059;-89
2021/10/03 05:13:52;;;;;;;1.63;0.70;;;;;;;12.83;71.79;98238.19;4944768;28;20513;-89
2021/10/03 05:16:17;;;;;;;2.10;0.57;;;;;;;12.81;71.77;98240.19;4948149;28;20019;-89
2021/10/03 05:18:42;;;;;;;7.45;0.52;;;;;;;12.90;72.16;98228.63;4944830;28;20489;-89
2021/10/03 05:21:08;;;;;;;3.17;0.65;;;;;;;12.97;71.86;98231.38;4945384;28;20110;-89
2021/10/03 05:23:34;;;;;;;1.13;0.30;;;;;;;13.03;70.96;98244.72;4945895;28;20037;-90
2021/10/03 05:26:00;;;;;;;4.57;0.65;;;;;;;13.06;71.36;98257.53;4946521;28;20047;-89
2021/10/03 05:28:26;;;;;;;1.50;0.60;;;;;;;12.93;71.43;98261.69;4945455;28;20090;-90
2021/10/03 05:30:51;;;;;;;2.47;0.47;;;;;;;12.87;71.90;98266.69;4945978;28;20031;-89
2021/10/03 05:33:17;;;;;;;5.57;0.85;;;;;;;12.92;71.82;98260.88;4945671;28;20038;-90
2021/10/03 05:35:43;;;;;;;4.85;0.70;;;;;;;12.74;71.58;98268.19;4945038;28;20065;-89
2021/10/03 05:38:09;;;;;;;3.33;0.60;;;;;;;12.77;72.30;98281.03;4946032;28;20059;-90
2021/10/03 05:40:34;;;;;;;6.65;0.60;;;;;;;12.93;71.85;98282.78;4945434;28;20031;-89
2021/10/03 05:43:00;;;;;;;3.83;0.60;;;;;;;12.94;71.48;98282.59;4950055;28;20038;-89
2021/10/03 05:45:26;;;;;;;7.55;1.05;;;;;;;12.78;71.98;98285.31;4954081;28;20114;-90
2021/10/03 05:47:51;;;;;;;5.50;0.90;;;;;;;12.88;71.83;98273.56;4945916;28;20035;-89
2021/10/03 05:50:17;;;;;;;7.13;0.82;;;;;;;12.94;71.50;98261.53;4951867;28;20049;-89
2021/10/03 05:52:42;;;;;;;4.20;0.60;;;;;;;12.97;71.52;98250.63;4945237;28;20274;-90
2021/10/03 05:55:08;;;;;;;3.95;0.63;;;;;;;12.80;71.24;98270.97;4945076;28;20450;-89
2021/10/03 05:57:34;;;;;;;3.63;0.60;;;;;;;12.98;70.97;98283.91;4945612;28;20019;-90
2021/10/03 05:59:59;;;;;;;2.85;0.65;;;;;;;13.01;71.15;98251.97;4944947;28;20031;-89
2021/10/03 06:02:24;;;;;;;5.65;1.00;;;;;;;12.98;70.29;98247.03;4945600;28;20027;-89
2021/10/03 06:04:50;;;;;;;3.03;0.65;;;;;;;12.83;70.69;98240.84;4944935;28;20086;-90
2021/10/03 06:07:15;;;;;;;6.55;0.80;;;;;;;12.97;70.85;98250.63;4946110;28;20035;-90
2021/10/03 06:09:42;;;;;;;7.90;0.73;;;;;;;13.04;70.86;98288.47;4944811;28;20020;-89
2021/10/03 06:12:07;;;;;;;3.25;0.63;;;;;;;13.03;70.86;98318.47;4944529;28;20031;-89
2021/10/03 06:14:33;;;;;;;5.07;0.60;;;;;;;13.09;70.63;98312.50;4945013;28;20046;-89
2021/10/03 06:16:58;;;;;;;3.28;0.63;;;;;;;13.00;70.25;98308.25;4945343;28;20051;-89
2021/10/03 06:19:23;;;;;;;7.20;1.02;;;;;;;12.93;70.22;98294.13;4947429;28;20031;-89
2021/10/03 06:21:49;;;;;;;6.40;0.70;;;;;;;13.00;70.34;98304.81;4943416;28;20110;-90
2021/10/03 06:24:18;;;;;;;1.48;0.25;;;;;;;13.08;69.87;98317.94;4943948;28;20571;-90
2021/10/03 06:26:44;;;;;;;5.65;0.70;;;;;;;13.13;69.45;98323.53;4943649;28;20109;-89
2021/10/03 06:29:09;;;;;;;5.05;0.88;;;;;;;13.17;69.98;98319.56;4945161;28;20023;-90
2021/10/03 06:31:34;;;;;;;3.10;0.50;;;;;;;13.12;69.48;98289.44;4944865;28;20086;-90
2021/10/03 06:34:00;;;;;;;3.40;0.60;;;;;;;13.26;69.08;98307.16;4944761;28;20362;-91
2021/10/03 06:36:26;;;;;;;6.88;0.82;;;;;;;13.36;69.34;98326.22;4943369;28;20066;-91
2021/10/03 06:38:52;;;;;;;7.45;0.80;;;;;;;13.21;69.00;98341.09;4942329;28;20030;-90
2021/10/03 06:41:18;;;;;;;4.55;0.40;;;;;;;13.10;69.79;98345.75;4943140;28;20047;-91
2021/10/03 06:43:43;;;;;;;5.43;0.70;;;;;;;13.29;68.84;98341.94;4942900;28;20035;-91
2021/10/03 06:46:09;;;;;;;6.47;0.82;;;;;;;13.21;69.57;98341.09;4943026;29;20035;-90
2021/10/03 06:48:34;;;;;;;4.72;0.98;;;;;;;13.19;69.09;98345.72;4942133;28;20105;-90
2021/10/03 06:51:00;;;;;;;3.70;0.65;;;;;;;13.11;68.75;98354.47;4946406;28;20095;-89
2021/10/03 06:53:26;;;;;;;6.75;1.38;;;;;;;13.37;68.62;98348.13;4943531;28;20118;-89
2021/10/03 06:55:53;;;;;;;4.72;0.80;;;;;;;13.41;68.58;98352.91;4945080;28;20050;-89
2021/10/03 06:58:19;;;;;;;8.73;1.55;;;;;;;13.49;68.63;98376.59;4946004;28;20024;-89
2021/10/03 07:00:44;;;;;;;10.15;0.80;;;;;;;13.36;68.42;98397.41;4945602;28;20039;-89
2021/10/03 07:03:09;;;;;;;6.07;1.55;;;;;;;13.39;68.92;98394.44;4944362;28;20474;-90
2021/10/03 07:05:35;;;;;;;4.20;0.70;;;;;;;13.59;68.43;98388.75;4943935;28;20042;-89
2021/10/03 07:08:02;;;;;;;4.60;0.88;;;;;;;13.58;68.20;98392.34;4950845;28;20054;-89
2021/10/03 07:10:27;;;;;;;4.35;0.88;;;;;;;13.61;68.56;98399.94;4949708;28;20027;-89
2021/10/03 07:12:53;;;;;;;7.05;1.15;;;;;;;13.66;67.54;98401.06;4953185;28;20027;-89
2021/10/03 07:15:18;;;;;;;8.07;0.85;;;;;;;13.61;67.82;98421.03;4949314;28;20574;-89
2021/10/03 07:17:43;;;;;;;9.45;0.90;;;;;;;13.67;67.92;98415.06;4948664;28;20513;-89
2021/10/03 07:20:09;;;;;;;5.75;1.10;;;;;;;13.68;68.43;98419.34;4951252;28;20027;-90
2021/10/03 07:22:35;;;;;;;7.05;0.80;;;;;;;13.76;68.48;98411.38;4948262;28;20541;-90
2021/10/03 07:25:00;;;;;;;6.68;0.65;;;;;;;13.81;68.20;98400.31;4948631;28;20057;-90
2021/10/03 07:27:26;;;;;;;3.03;1.13;;;;;;;13.71;67.21;98420.81;4947533;28;20478;-90
2021/10/03 07:29:51;;;;;;;5.40;0.95;;;;;;;13.91;68.32;98415.94;4948050;28;20022;-89
2021/10/03 07:32:17;;;;;;;8.23;1.00;;;;;;;13.94;68.24;98405.00;4946277;28;20122;-89
2021/10/03 07:34:42;;;;;;;6.18;0.98;;;;;;;13.89;67.32;98409.00;4947707;28;20023;-89
2021/10/03 07:37:07;;;;;;;5.45;0.70;;;;;;;14.08;67.41;98430.66;4948273;28;20123;-90
2021/10/03 07:39:34;;;;;;;8.23;1.02;;;;;;;13.84;66.83;98437.72;4950375;28;20042;-90
2021/10/03 07:42:00;;;;;;;5.75;0.90;;;;;;;14.11;67.04;98435.56;4953759;28;20442;-90
2021/10/03 07:44:25;;;;;;;3.00;0.50;;;;;;;14.23;67.15;98455.28;4949965;28;20607;-90
2021/10/03 07:46:51;;;;;;;5.55;0.70;;;;;;;14.07;66.36;98472.03;4947392;28;20031;-90
2021/10/03 07:49:16;;;;;;;5.43;1.05;;;;;;;13.85;68.04;98465.72;4955391;28;20039;-89
2021/10/03 07:51:42;;;;;;;8.38;0.85;;;;;;;14.04;67.27;98458.38;4954154;28;20042;-90
2021/10/03 07:54:08;;;;;;;7.95;0.55;;;;;;;14.29;67.05;98451.13;4950545;28;20037;-90
2021/10/03 07:56:33;;;;;;;5.70;0.40;;;;;;;14.28;67.65;98450.31;4947712;28;20445;-90
2021/10/03 07:58:59;;;;;;;4.25;0.85;;;;;;;14.21;67.30;98446.72;4947656;28;20023;-89
2021/10/03 08:01:24;;;;;;;7.43;0.50;;;;;;;14.24;67.25;98453.47;4946463;28;20031;-90
2021/10/03 08:03:50;;;;;;;3.95;0.50;;;;;;;14.29;66.49;98449.28;4947836;28;20538;-90
2021/10/03 08:06:17;;;;;;;6.28;0.73;;;;;;;14.12;67.22;98452.22;4947976;28;20078;-89
2021/10/03 08:08:43;;;;;;;3.72;0.55;;;;;;;13.97;66.60;98468.00;4947658;28;20032;-89
2021/10/03 08:11:08;;;;;;;2.47;0.60;;;;;;;14.08;66.24;98464.97;4947944;28;20027;-90
2021/10/03 08:13:34;;;;;;;8.48;1.00;;;;;;;13.75;66.54;98473.03;4947928;28;20059;-90
2021/10/03 08:15:59;;;;;;;5.28;0.60;;;;;;;13.92;66.57;98472.94;4946474;28;20397;-90
2021/10/03 08:18:25;;;;;;;5.90;1.10;;;;;;;14.04;66.28;98474.19;4945366;28;20487;-90
2021/10/03 08:20:51;;;;;;;4.07;0.65;;;;;;;14.13;66.08;98472.34;4949909;28;20090;-90
2021/10/03 08:23:17;;;;;;;3.45;0.55;;;;;;;14.09;65.91;98479.78;4946851;28;20759;-89
2021/10/03 08:25:43;;;;;;;6.03;0.93;;;;;;;14.28;67.43;98476.69;4949911;28;20545;-90
2021/10/03 08:28:08;;;;;;;5.63;0.75;;;;;;;15.60;66.40;98484.28;4955240;28;20027;-91
2021/10/03 08:30:34;;;;;;;8.98;0.63;;;;;;;16.23;64.06;98481.16;4954892;28;20031;-91
2021/10/03 08:32:59;;;;;;;6.45;0.60;;;;;;;17.35;63.24;98469.88;4947300;29;20047;-92
2021/10/03 08:35:24;;;;;;;5.25;0.50;;;;;;;18.64;60.36;98476.25;4952834;28;20027;-91
2021/10/03 08:37:50;;;;;;;8.85;0.70;;;;;;;19.68;55.13;98479.22;4953017;28;20091;-91
2021/10/03 08:40:15;;;;;;;3.92;0.50;;;;;;;20.23;51.00;98474.28;4954615;28;20023;-91
2021/10/03 08:42:41;;;;;;;6.90;0.75;;;;;;;21.37;49.49;98483.03;4954739;28;20023;-92
2021/10/03 08:45:08;;;;;;;11.45;0.60;;;;;;;22.02;46.53;98495.06;4955775;28;20043;-93
2021/10/03 08:47:37;;;;;;;2.97;0.40;;;;;;;22.14;49.80;98501.28;4953153;28;20470;-93
2021/10/03 08:50:08;;;;;;;4.10;0.60;;;;;;;23.10;46.80;98495.16;4953348;28;20054;-93
2021/10/03 08:52:33;;;;;;;2.35;0.40;;;;;;;24.25;45.91;98492.72;4962847;28;20033;-95
2021/10/03 08:54:58;;;;;;;2.17;0.63;;;;;;;24.41;42.74;98488.47;4957826;28;20031;-95
2021/10/03 08:57:24;;;;;;;7.28;1.52;;;;;;;25.44;44.67;98499.81;4962347;28;20034;-95
2021/10/03 09:00:07;;;;;;;4.95;0.90;;;;;;;26.03;40.91;98499.25;4955630;28;20161;-95
2021/10/03 09:02:52;;;;;;;4.95;0.75;;;;;;;26.37;42.02;98493.69;4953924;28;20034;-94
2021/10/03 09:05:18;;;;;;;8.07;0.68;;;;;;;25.73;41.25;98483.53;4957714;28;20039;-95
2021/10/03 09:08:15;;;;;;;3.40;0.65;;;;;;;24.03;41.97;98498.78;4959427;28;20042;-93
2021/10/03 09:10:53;;;;;;;5.40;1.13;;;;;;;24.29;44.21;98491.19;4961821;28;20445;-95
2021/10/03 09:13:22;;;;;;;5.53;0.80;;;;;;;25.04;42.46;98487.41;4956937;28;20395;-94
2021/10/03 09:16:07;;;;;;;3.03;0.45;;;;;;;26.88;41.61;98507.63;4969230;28;20035;-95
2021/10/03 09:18:39;;;;;;;3.58;0.70;;;;;;;26.52;38.28;98511.84;4953858;29;20065;-93
2021/10/03 09:21:05;;;;;;;4.10;0.70;;;;;;;26.24;40.80;98516.41;4951919;28;20224;-95
2021/10/03 09:23:31;;;;;;;3.67;0.77;;;;;;;26.49;39.72;98523.13;4951674;28;20031;-94
2021/10/03 09:25:58;;;;;;;4.43;0.60;;;;;;;24.87;41.76;98524.97;4952926;28;20088;-96
2021/10/03 09:28:23;;;;;;;5.35;0.70;;;;;;;25.55;41.25;98530.31;4952622;28;20042;-95
2021/10/03 09:30:51;;;;;;;4.38;0.65;;;;;;;25.80;43.08;98537.13;4954134;28;20027;-94
2021/10/03 09:33:16;;;;;;;8.55;1.10;;;;;;;25.33;40.55;98533.78;4952570;28;20082;-95
2021/10/03 09:35:54;;;;;;;3.33;0.60;;;;;;;25.20;40.85;98550.22;4953662;28;20066;-93
2021/10/03 09:38:20;;;;;;;3.60;0.55;;;;;;;24.60;42.48;98546.25;4953277;28;20110;-95
2021/10/03 09:40:45;;;;;;;4.50;0.60;;;;;;;25.10;42.43;98548.19;4954613;28;20504;-95
2021/10/03 09:43:12;;;;;;;2.97;0.50;;;;;;;25.32;40.23;98552.84;4952355;28;20035;-95
2021/10/03 09:45:38;;;;;;;6.07;1.15;;;;;;;25.33;42.57;98557.94;4952501;28;20043;-95
2021/10/03 09:48:08;;;;;;;4.18;0.85;;;;;;;24.37;44.30;98557.06;4952094;28;20329;-95
2021/10/03 09:50:40;;;;;;;4.93;0.70;;;;;;;24.80;43.35;98572.63;4951450;28;20023;-94
2021/10/03 09:53:07;;;;;;;4.28;0.75;;;;;;;24.37;42.25;98567.78;4952392;28;20034;-92
2021/10/03 09:55:32;;;;;;;1.95;0.40;;;;;;;24.57;44.52;98573.56;4957324;28;20105;-93
2021/10/03 09:57:58;;;;;;;6.22;1.00;;;;;;;25.69;41.86;98573.78;4952127;28;20601;-95
2021/10/03 10:00:27;;;;;;;6.85;0.90;;;;;;;25.51;42.03;98582.94;4951662;28;20035;-94
2021/10/03 10:02:53;;;;;;;6.65;0.98;;;;;;;25.14;42.49;98570.81;4953441;28;20034;-94
2021/10/03 10:05:24;;;;;;;2.75;0.98;;;;;;;26.60;39.81;98570.66;4959034;28;20031;-95
2021/10/03 10:07:50;;;;;;;7.88;1.20;;;;;;;26.75;41.42;98580.72;4952278;28;20485;-94
2021/10/03 10:10:16;;;;;;;6.15;1.30;;;;;;;27.00;41.21;98584.75;4963359;28;20077;-95
2021/10/03 10:13:11;;;;;;;4.45;0.88;;;;;;;25.08;41.59;98584.38;4952188;28;20037;-93
2021/10/03 10:15:36;;;;;;;6.00;0.85;;;;;;;23.75;43.98;98595.97;4932011;29;20545;-95
2021/10/03 10:18:25;;;;;;;3.72;0.75;;;;;;;24.63;44.05;98596.75;4949680;28;20027;-95
2021/10/03 10:20:56;;;;;;;4.72;0.90;;;;;;;24.86;44.68;98592.31;4951972;28;20478;-95
2021/10/03 10:23:29;;;;;;;4.72;0.80;;;;;;;24.58;45.52;98593.16;4944501;28;20027;-96
2021/10/03 10:25:57;;;;;;;5.30;1.05;;;;;;;24.55;43.42;98578.38;4952906;28;20157;-94
2021/10/03 10:28:28;;;;;;;8.63;1.73;;;;;;;24.19;44.02;98603.63;4952191;28;20035;-93
2021/10/03 10:31:17;;;;;;;6.38;1.52;;;;;;;22.55;47.10;98598.66;4956053;28;20015;-96
2021/10/03 10:33:51;;;;;;;8.70;1.40;;;;;;;21.39;51.49;98603.75;4952704;28;20047;-91
2021/10/03 10:36:30;;;;;;;7.70;1.02;;;;;;;21.11;52.33;98600.69;4951283;28;20023;-91
2021/10/03 10:39:07;;;;;;;5.10;1.15;;;;;;;19.52;55.19;98614.38;4952925;28;20056;-91
2021/10/03 10:41:41;;;;;;;6.15;0.98;;;;;;;20.14;55.51;98622.09;4951759;28;20024;-91
2021/10/03 10:44:26;;;;;;;6.78;0.90;;;;;;;20.30;55.86;98623.47;4955903;28;20039;-92
2021/10/03 10:46:57;;;;;;;3.45;0.93;;;;;;;20.85;52.27;98618.50;4955212;29;20031;-90
2021/10/03 10:49:25;;;;;;;5.43;0.52;;;;;;;20.85;52.34;98621.19;4955525;28;20023;-90
2021/10/03 10:52:19;;;;;;;3.63;1.05;;;;;;;21.03;52.69;98630.31;4955776;28;20032;-89
2021/10/03 10:54:59;;;;;;;4.72;0.77;;;;;;;20.95;51.24;98618.88;4956020;28;20035;-89
2021/10/03 10:57:29;;;;;;;6.80;0.80;;;;;;;21.71;51.86;98627.75;4953624;28;20031;-90
2021/10/03 11:00:19;;;;;;;3.40;0.77;;;;;;;21.78;48.16;98623.16;4953849;28;20118;-89
2021/10/03 11:02:52;;;;;;;5.85;1.02;;;;;;;23.00;48.31;98628.72;4952048;28;20062;-92
2021/10/03 11:05:51;;;;;;;6.30;1.50;;;;;;;23.17;48.85;98635.06;4965252;28;20027;-91
2021/10/03 11:08:20;;;;;;;4.78;0.60;;;;;;;23.43;47.62;98646.41;4967602;28;20146;-93
2021/10/03 11:10:57;;;;;;;3.67;0.50;;;;;;;24.01;46.19;98628.72;4971116;28;20078;-91
2021/10/03 11:13:38;;;;;;;7.93;0.63;;;;;;;24.12;43.29;98635.94;4962559;28;20011;-93
2021/10/03 11:16:20;;;;;;;4.32;0.82;;;;;;;24.03;42.74;98627.47;4969530;28;20039;-93
2021/10/03 11:18:54;;;;;;;4.72;0.52;;;;;;;23.64;45.13;98629.78;4964792;28;20035;-91
2021/10/03 11:21:34;;;;;;;3.92;0.50;;;;;;;22.52;44.77;98641.09;4962531;28;20438;-92
2021/10/03 11:24:03;;;;;;;2.17;0.47;;;;;;;23.59;44.80;98651.09;4953491;28;20030;-96
2021/10/03 11:26:47;;;;;;;3.47;0.70;;;;;;;23.83;42.70;98648.44;4956055;28;20455;-91
2021/10/03 11:29:13;;;;;;;6.68;0.88;;;;;;;23.19;44.80;98659.75;4955887;28;20121;-91
2021/10/03 11:31:47;;;;;;;3.97;0.70;;;;;;;22.13;46.27;98665.34;4953832;28;20123;-94
2021/10/03 11:34:35;;;;;;;6.18;0.77;;;;;;;20.99;45.42;98670.78;4959407;28;20429;-92
2021/10/03 11:37:34;;;;;;;5.75;0.55;;;;;;;21.06;48.13;98667.25;4954480;28;20027;-93